No particular awareness of the weather is required.    There are no Weather-warnings


Meteo18 Weather Cam more information Meteo18 Weather Cam


Thunder radar more information blitzortung!


Rain radar more information rain snow radar


Visit our other weather sites:

Template documentation
and downloads

And another site



Weather Underground History page Text

Daily Summary for October 28, 2017 Units:  English    Metric   Both
« Previous Day
Next Day »
Daily Weekly Monthly Yearly Custom
  High: Low: Average:
Temperature: 55 °F 37.2 °F 46.6 °F
Dew Point: 47.8 °F 36.1 °F 42.3 °F
Humidity: 96 % 63 % 86 %
Wind Speed: 7 mph 0 mph 0.9 mph
Wind Gust: 12 mph - -
Wind:- - West
Pressure: 30.5 in 30.3 in -
Precipitation: 0.01 in    
Historical Graphs
 
 
Tabular Data for October 28, 2017
Time Temperature Dew Point Pressure Wind Wind Speed Wind Gust Humidity Rainfall Rate (Hourly)
00:02 47.5 °F 44.1 °F 30.5 in Calm   2 mph 88 % 0 in
00:12 47.1 °F 43.7 °F 30.5 in NNW 1 mph 2 mph 88 % 0 in
00:17 47.3 °F 43.9 °F 30.5 in NW 1 mph 1 mph 88 % 0 in
00:22 47.1 °F 43.7 °F 30.5 in NNW 3 mph 3 mph 88 % 0 in
00:27 47.1 °F 43.7 °F 30.5 in Calm   2 mph 88 % 0 in
00:32 47.1 °F 43.7 °F 30.5 in NNW 1 mph 4 mph 88 % 0 in
00:37 46.9 °F 43.5 °F 30.5 in NNE 2 mph 4 mph 88 % 0 in
00:42 47.1 °F 43.7 °F 30.5 in Calm   3 mph 88 % 0 in
00:47 46.9 °F 43.5 °F 30.5 in North 1 mph 3 mph 88 % 0 in
00:52 46.8 °F 43.3 °F 30.5 in Calm   3 mph 88 % 0 in
00:57 46.4 °F 43 °F 30.5 in Calm   1 mph 88 % 0 in
01:02 46 °F 43 °F 30.5 in NNW 1 mph 1 mph 89 % 0 in
01:12 46 °F 43 °F 30.5 in Calm   1 mph 89 % 0 in
01:17 45.9 °F 43.2 °F 30.5 in Calm   1 mph 90 % 0 in
01:22 45.9 °F 43.2 °F 30.5 in Calm   1 mph 90 % 0 in
01:32 45.9 °F 43.2 °F 30.5 in Calm   2 mph 90 % 0 in
01:37 45.9 °F 43.2 °F 30.5 in Calm   2 mph 90 % 0 in
01:42 45.7 °F 43 °F 30.5 in NW 1 mph 2 mph 90 % 0 in
01:52 45.3 °F 42.8 °F 30.5 in WNW 1 mph 2 mph 91 % 0 in
02:02 45.3 °F 42.8 °F 30.5 in Calm   2 mph 91 % 0 in
02:12 44.8 °F 42.6 °F 30.5 in NW 1 mph 2 mph 92 % 0 in
02:17 44.4 °F 42.3 °F 30.5 in WNW 1 mph 2 mph 92 % 0 in
02:22 44.2 °F 42.1 °F 30.5 in WNW 2 mph 2 mph 92 % 0 in
02:32 44.2 °F 42.3 °F 30.5 in WNW 1 mph 2 mph 93 % 0 in
02:37 44.2 °F 42.3 °F 30.5 in NW 1 mph 2 mph 93 % 0 in
02:42 44.2 °F 42.3 °F 30.5 in NW 1 mph 2 mph 93 % 0 in
02:47 44.8 °F 43.2 °F 30.5 in NW 2 mph 3 mph 94 % 0 in
02:52 45 °F 43 °F 30.5 in NW 1 mph 3 mph 93 % 0 in
02:57 45 °F 42.8 °F 30.5 in NNW 2 mph 3 mph 92 % 0 in
03:02 45.1 °F 43 °F 30.5 in NW 1 mph 3 mph 92 % 0 in
03:12 45.1 °F 43 °F 30.5 in WNW 1 mph 3 mph 92 % 0 in
03:17 45.1 °F 43 °F 30.5 in Calm   3 mph 92 % 0 in
03:32 44.1 °F 41.9 °F 30.5 in NW 2 mph 2 mph 92 % 0 in
03:37 44.2 °F 42.3 °F 30.5 in NW 1 mph 2 mph 93 % 0 in
03:42 44.4 °F 42.4 °F 30.5 in Calm   2 mph 93 % 0 in
03:47 44.4 °F 42.4 °F 30.5 in Calm   2 mph 93 % 0 in
03:52 44.2 °F 42.3 °F 30.5 in Calm   2 mph 93 % 0 in
03:57 44.1 °F 41.9 °F 30.5 in Calm   2 mph 92 % 0 in
04:02 43.9 °F 41.7 °F 30.5 in Calm   2 mph 92 % 0 in
04:12 43.7 °F 41.7 °F 30.5 in WNW 2 mph 2 mph 93 % 0 in
04:17 43.5 °F 41.7 °F 30.5 in WNW 1 mph 2 mph 93 % 0 in
04:22 43.3 °F 41.5 °F 30.5 in WNW 1 mph 2 mph 93 % 0 in
04:32 43.3 °F 41.7 °F 30.5 in NW 1 mph 2 mph 94 % 0 in
04:42 43.3 °F 41.7 °F 30.5 in Calm   2 mph 94 % 0 in
04:47 43.3 °F 41.7 °F 30.5 in Calm   2 mph 94 % 0 in
04:52 43.3 °F 41.7 °F 30.5 in Calm   2 mph 94 % 0 in
04:57 43.3 °F 41.7 °F 30.5 in WNW 1 mph 3 mph 94 % 0 in
05:02 43.3 °F 41.7 °F 30.5 in WNW 1 mph 3 mph 94 % 0 in
05:07 43.3 °F 41.7 °F 30.5 in WNW 1 mph 2 mph 94 % 0 in
05:17 43.5 °F 41.9 °F 30.5 in WNW 1 mph 2 mph 94 % 0 in
05:27 43.5 °F 41.9 °F 30.5 in WNW 1 mph 2 mph 94 % 0 in
05:32 43.5 °F 41.9 °F 30.5 in NW 2 mph 2 mph 94 % 0 in
05:42 43.5 °F 41.9 °F 30.5 in Calm   2 mph 94 % 0 in
05:47 43.5 °F 41.9 °F 30.5 in WNW 1 mph 2 mph 94 % 0 in
05:52 43.3 °F 41.7 °F 30.5 in NW 1 mph 2 mph 94 % 0 in
05:57 43.5 °F 41.9 °F 30.5 in NW 2 mph 2 mph 94 % 0 in
06:02 43.3 °F 41.7 °F 30.5 in Calm   2 mph 94 % 0 in
06:07 43.2 °F 41.5 °F 30.5 in WNW 1 mph 3 mph 94 % 0 in
06:12 43.2 °F 41.5 °F 30.5 in Calm   3 mph 94 % 0 in
06:17 43.2 °F 41.9 °F 30.5 in Calm   2 mph 95 % 0 in
06:22 43 °F 41.4 °F 30.5 in Calm   2 mph 94 % 0 in
06:27 42.6 °F 41 °F 30.5 in Calm   1 mph 94 % 0 in
06:32 42.8 °F 41.5 °F 30.5 in Calm   1 mph 95 % 0 in
06:42 42.6 °F 41.4 °F 30.5 in Calm   1 mph 95 % 0 in
06:47 42.4 °F 41.2 °F 30.5 in Calm   1 mph 95 % 0 in
06:52 42.4 °F 41.2 °F 30.5 in Calm   2 mph 95 % 0 in
06:57 42.3 °F 41 °F 30.5 in Calm   2 mph 95 % 0 in
07:02 42.1 °F 40.8 °F 30.5 in North 1 mph 2 mph 95 % 0 in
07:12 41.5 °F 40.3 °F 30.5 in Calm   2 mph 95 % 0 in
07:17 41.2 °F 39.9 °F 30.5 in Calm   2 mph 95 % 0 in
07:22 40.6 °F 39 °F 30.5 in Calm   2 mph 94 % 0 in
07:32 40.6 °F 39.4 °F 30.5 in Calm   1 mph 95 % 0 in
07:42 40.6 °F 39.4 °F 30.5 in Calm   1 mph 95 % 0 in
07:47 40.8 °F 39.7 °F 30.5 in Calm     96 % 0 in
07:52 41.2 °F 40.1 °F 30.5 in Calm     96 % 0 in
07:57 41 °F 39.9 °F 30.5 in Calm   1 mph 96 % 0 in
08:02 40.6 °F 39.4 °F 30.5 in Calm   1 mph 95 % 0 in
08:07 40.1 °F 38.8 °F 30.5 in Calm   1 mph 95 % 0 in
08:12 39.9 °F 38.8 °F 30.5 in Calm   1 mph 96 % 0 in
08:17 39.7 °F 38.5 °F 30.5 in Calm     95 % 0 in
08:22 39.6 °F 38.5 °F 30.5 in Calm     96 % 0 in
08:32 39 °F 37.9 °F 30.5 in Calm     96 % 0 in
08:42 38.8 °F 37.8 °F 30.5 in Calm     96 % 0.01 in
08:47 38.3 °F 37 °F 30.5 in Calm     95 % 0.01 in
08:52 37.9 °F 36.7 °F 30.5 in Calm     95 % 0.01 in
08:57 37.6 °F 36.3 °F 30.5 in Calm     95 % 0.01 in
09:02 37.2 °F 36.1 °F 30.5 in Calm     96 % 0.01 in
09:12 37.2 °F 36.1 °F 30.5 in Calm     96 % 0.01 in
09:22 37.6 °F 36.5 °F 30.5 in Calm     96 % 0.01 in
09:32 38.3 °F 37.2 °F 30.5 in Calm     96 % 0.01 in
09:37 38.7 °F 37.6 °F 30.5 in Calm     96 % 0 in
09:42 38.1 °F 36.9 °F 30.5 in Calm     95 % 0 in
09:52 37.8 °F 36.5 °F 30.5 in Calm     95 % 0 in
09:57 38.1 °F 37 °F 30.5 in Calm   1 mph 96 % 0 in
10:02 38.3 °F 37.2 °F 30.5 in Calm   1 mph 96 % 0 in
10:07 38.5 °F 37.4 °F 30.5 in Calm   1 mph 96 % 0 in
10:12 39 °F 37.9 °F 30.5 in Calm   1 mph 96 % 0 in
10:17 39.7 °F 38.7 °F 30.5 in Calm   1 mph 96 % 0 in
10:22 40.3 °F 39.2 °F 30.5 in Calm   1 mph 96 % 0 in
10:32 42.1 °F 41 °F 30.5 in Calm     96 % 0 in
10:42 43 °F 41.7 °F 30.5 in South 2 mph   95 % 0 in
10:47 43.2 °F 41.5 °F 30.5 in Calm   2 mph 94 % 0 in
10:52 43.5 °F 41.9 °F 30.5 in Calm   2 mph 94 % 0 in
11:02 44.8 °F 43.2 °F 30.5 in Calm   2 mph 94 % 0 in
11:12 46 °F 44.4 °F 30.5 in Calm   2 mph 94 % 0 in
11:17 46.8 °F 45.1 °F 30.5 in Calm   2 mph 94 % 0 in
11:22 47.3 °F 45.3 °F 30.5 in SSE 1 mph 2 mph 93 % 0 in
11:32 48 °F 45.9 °F 30.5 in Calm   2 mph 92 % 0 in
11:42 48.7 °F 46.2 °F 30.5 in Calm   2 mph 91 % 0 in
11:47 49.1 °F 46.2 °F 30.5 in SW 1 mph 2 mph 90 % 0 in
11:52 49.1 °F 46.6 °F 30.5 in Calm   2 mph 91 % 0 in
11:57 49.1 °F 46.2 °F 30.5 in Calm   4 mph 90 % 0 in
12:02 49.5 °F 46.9 °F 30.5 in SSE 1 mph 4 mph 91 % 0 in
12:07 49.6 °F 46.8 °F 30.5 in Calm   2 mph 90 % 0 in
12:12 49.6 °F 46.8 °F 30.5 in SE 2 mph 2 mph 90 % 0 in
12:22 49.8 °F 46.9 °F 30.5 in Calm   3 mph 90 % 0 in
12:27 50.2 °F 47.1 °F 30.5 in Calm   3 mph 89 % 0 in
12:32 50.2 °F 47.1 °F 30.5 in Calm   3 mph 89 % 0 in
12:37 50.4 °F 47.3 °F 30.5 in Calm   1 mph 89 % 0 in
12:42 50.9 °F 47.8 °F 30.5 in Calm   1 mph 89 % 0 in
12:47 51.3 °F 47.8 °F 30.5 in Calm   1 mph 88 % 0 in
12:52 51.3 °F 47.5 °F 30.5 in Calm   1 mph 87 % 0 in
12:57 51.3 °F 47.5 °F 30.5 in SSW 2 mph 2 mph 87 % 0 in
13:02 51.4 °F 47.7 °F 30.5 in SE 1 mph 5 mph 87 % 0 in
13:12 52 °F 46.9 °F 30.4 in Calm   5 mph 83 % 0 in
13:17 52.3 °F 46.9 °F 30.4 in SSW 3 mph 4 mph 82 % 0 in
13:22 52.9 °F 46.9 °F 30.4 in Calm   4 mph 80 % 0 in
13:32 52.9 °F 42.3 °F 30.4 in WNW 2 mph 3 mph 67 % 0 in
13:37 53.1 °F 42.4 °F 30.4 in West 3 mph 6 mph 67 % 0 in
13:42 53.2 °F 41.7 °F 30.4 in West 2 mph 6 mph 65 % 0 in
13:47 53.4 °F 41.2 °F 30.4 in WNW 2 mph 6 mph 63 % 0 in
13:52 53.8 °F 41.5 °F 30.4 in West 2 mph 6 mph 63 % 0 in
13:57 54 °F 42.1 °F 30.4 in WSW 4 mph 9 mph 64 % 0 in
14:02 54 °F 42.1 °F 30.4 in WNW 3 mph 9 mph 64 % 0 in
14:12 54 °F 42.8 °F 30.4 in North 7 mph 9 mph 66 % 0 in
14:22 53.4 °F 42.3 °F 30.4 in WNW 4 mph 9 mph 66 % 0 in
14:32 53.4 °F 42.8 °F 30.4 in WNW 5 mph 9 mph 67 % 0 in
14:37 53.4 °F 42.8 °F 30.4 in WNW 5 mph 8 mph 67 % 0 in
14:42 53.4 °F 42.8 °F 30.4 in WNW 1 mph 8 mph 67 % 0 in
14:52 53.4 °F 43.5 °F 30.4 in WNW 5 mph 8 mph 69 % 0 in
14:57 53.2 °F 44.1 °F 30.4 in West 2 mph 9 mph 71 % 0 in
15:02 53.6 °F 44.4 °F 30.4 in NNE 7 mph 9 mph 71 % 0 in
15:12 53.6 °F 44.1 °F 30.4 in NNW 1 mph 10 mph 70 % 0 in
15:17 53.8 °F 43.9 °F 30.4 in WNW 3 mph 10 mph 69 % 0 in
15:22 53.8 °F 43.2 °F 30.4 in NW 7 mph 10 mph 67 % 0 in
15:32 54.1 °F 43.3 °F 30.4 in WNW 2 mph 12 mph 67 % 0 in
15:37 54.5 °F 42.6 °F 30.4 in WNW 3 mph 9 mph 64 % 0 in
15:42 54.5 °F 42.6 °F 30.4 in WNW 6 mph 9 mph 64 % 0 in
15:52 54.3 °F 42.8 °F 30.4 in WSW 4 mph 10 mph 65 % 0 in
16:02 54.1 °F 43 °F 30.4 in WSW 4 mph 9 mph 66 % 0 in
16:12 54.3 °F 42.8 °F 30.4 in WNW 3 mph 9 mph 65 % 0 in
16:17 54.5 °F 43 °F 30.4 in WSW 3 mph 8 mph 65 % 0 in
16:22 54.9 °F 43.7 °F 30.4 in WSW 2 mph 8 mph 66 % 0 in
16:27 54.9 °F 43.3 °F 30.4 in West 2 mph 7 mph 65 % 0 in
16:32 54.7 °F 43.5 °F 30.4 in SW 3 mph 7 mph 66 % 0 in
16:37 54.9 °F 43.7 °F 30.4 in WSW 1 mph 7 mph 66 % 0 in
16:42 55 °F 43.9 °F 30.4 in WSW 3 mph 7 mph 66 % 0 in
16:52 54.9 °F 43.3 °F 30.4 in West 3 mph 4 mph 65 % 0 in
16:57 54.7 °F 43.5 °F 30.4 in West 1 mph 7 mph 66 % 0 in
17:02 54.7 °F 43.5 °F 30.4 in Calm   7 mph 66 % 0 in
17:12 55 °F 43.5 °F 30.4 in West 4 mph 7 mph 65 % 0 in
17:17 54.9 °F 43.7 °F 30.4 in NW 2 mph 6 mph 66 % 0 in
17:22 54.7 °F 43.9 °F 30.4 in WSW 2 mph 6 mph 67 % 0 in
17:27 54.5 °F 43.7 °F 30.4 in West 3 mph 8 mph 67 % 0 in
17:32 54.5 °F 43.7 °F 30.4 in WNW 3 mph 8 mph 67 % 0 in
17:42 54.3 °F 43.5 °F 30.4 in WNW 5 mph 8 mph 67 % 0 in
17:47 54.1 °F 43.9 °F 30.4 in West 3 mph 8 mph 68 % 0 in
17:52 54.1 °F 44.2 °F 30.4 in SW 3 mph 8 mph 69 % 0 in
17:57 54 °F 44.1 °F 30.4 in West 3 mph 8 mph 69 % 0 in
18:02 53.8 °F 44.2 °F 30.4 in West 3 mph 8 mph 70 % 0 in
18:12 53.6 °F 44.1 °F 30.4 in West 3 mph 5 mph 70 % 0 in
18:17 53.4 °F 43.9 °F 30.4 in West 3 mph 6 mph 70 % 0 in
18:22 53.4 °F 43.9 °F 30.4 in West 2 mph 5 mph 70 % 0 in
18:32 52.9 °F 43.7 °F 30.4 in West 1 mph 5 mph 71 % 0 in
18:37 52.3 °F 43.5 °F 30.4 in Calm   5 mph 72 % 0 in
18:47 51.6 °F 43.5 °F 30.4 in Calm   4 mph 74 % 0 in
18:52 51.3 °F 43.5 °F 30.4 in West 1 mph 2 mph 75 % 0 in
18:57 51.1 °F 43.7 °F 30.4 in Calm   2 mph 76 % 0 in
19:02 50.5 °F 43.5 °F 30.4 in Calm   2 mph 77 % 0 in
19:12 49.6 °F 43.3 °F 30.4 in Calm   2 mph 79 % 0 in
19:17 49.3 °F 43.3 °F 30.4 in Calm   1 mph 80 % 0 in
19:22 49.3 °F 43.3 °F 30.4 in WSW 1 mph 1 mph 80 % 0 in
19:32 48.9 °F 43.3 °F 30.4 in West 1 mph 2 mph 81 % 0 in
19:42 48.4 °F 43.2 °F 30.4 in Calm   2 mph 82 % 0 in
19:52 48 °F 43.2 °F 30.4 in Calm   1 mph 83 % 0 in
19:57 47.8 °F 43.2 °F 30.4 in Calm     84 % 0 in
20:02 47.5 °F 42.8 °F 30.4 in Calm     84 % 0 in
20:12 47.3 °F 43 °F 30.4 in Calm     85 % 0 in
20:17 47.3 °F 43 °F 30.4 in Calm     85 % 0 in
20:22 47.1 °F 42.8 °F 30.4 in Calm     85 % 0 in
20:27 46.9 °F 42.6 °F 30.4 in Calm     85 % 0 in
20:32 46.8 °F 42.4 °F 30.4 in Calm     85 % 0 in
20:37 46.4 °F 42.4 °F 30.4 in Calm     86 % 0 in
20:42 46.2 °F 42.6 °F 30.4 in Calm     87 % 0 in
20:52 46 °F 42.4 °F 30.4 in Calm     87 % 0 in
21:02 45.9 °F 42.3 °F 30.4 in Calm     87 % 0 in
21:07 45.5 °F 41.9 °F 30.4 in Calm     87 % 0 in
21:12 45.7 °F 42.6 °F 30.4 in Calm     89 % 0 in
21:17 46 °F 43 °F 30.4 in Calm     89 % 0 in
21:22 45.7 °F 42.1 °F 30.4 in Calm     87 % 0 in
21:32 45.1 °F 42.1 °F 30.4 in Calm     89 % 0 in
21:42 44.8 °F 41.4 °F 30.4 in Calm   1 mph 88 % 0 in
21:47 44.4 °F 41.7 °F 30.4 in Calm   1 mph 90 % 0 in
21:52 44.4 °F 41.7 °F 30.4 in Calm   1 mph 90 % 0 in
21:57 44.4 °F 41.7 °F 30.4 in Calm   1 mph 90 % 0 in
22:02 44.4 °F 41.7 °F 30.4 in Calm   1 mph 90 % 0 in
22:12 43.5 °F 40.8 °F 30.4 in Calm     90 % 0 in
22:17 43.3 °F 40.6 °F 30.4 in Calm     90 % 0 in
22:22 43 °F 40.3 °F 30.4 in South 1 mph   90 % 0 in
22:27 42.8 °F 40.3 °F 30.4 in South 1 mph 1 mph 91 % 0 in
22:32 42.4 °F 39.9 °F 30.4 in SSE 1 mph 1 mph 91 % 0 in
22:42 42.3 °F 40.1 °F 30.4 in Calm   2 mph 92 % 0 in
22:47 42.3 °F 40.1 °F 30.4 in Calm   2 mph 92 % 0 in
22:52 42.1 °F 39.9 °F 30.4 in Calm   2 mph 92 % 0 in
22:57 41.9 °F 39.7 °F 30.4 in Calm     92 % 0 in
23:02 41.9 °F 40.1 °F 30.4 in Calm     93 % 0 in
23:12 41.9 °F 40.1 °F 30.4 in Calm   1 mph 93 % 0 in
23:17 41.7 °F 39.9 °F 30.4 in Calm   1 mph 93 % 0 in
23:22 41.9 °F 40.3 °F 30.4 in Calm   1 mph 94 % 0 in
23:27 41.9 °F 40.1 °F 30.4 in Calm   1 mph 93 % 0 in
23:32 42.1 °F 40.3 °F 30.4 in Calm   1 mph 93 % 0 in
23:37 42.3 °F 40.6 °F 30.4 in WSW 1 mph 1 mph 94 % 0 in
23:42 43 °F 41.4 °F 30.3 in Calm   1 mph 94 % 0 in
23:47 43.2 °F 41.4 °F 30.3 in SW 1 mph 2 mph 93 % 0 in
23:52 42.8 °F 40.6 °F 30.3 in Calm   2 mph 92 % 0 in
23:57 42.6 °F 40.5 °F 30.3 in Calm   1 mph 92 % 0 in
Meteo18
Compliments of Weather Underground - 4 mb

Script developed by  Jim McMurry - jmcmurry@mwt.net Adapted for the template by  Wim van der Kuil - Leuven-Template.eu

You find our weather info also at:

European Weather Network

Weather Underground

Equipment we use:

Weather-station
Davis Vue

Weather-program
Meteohub

Weather-server
Raspberry PI 2 B+

Provider
1 and 1

Davis Vue

Meteohub

Raspberry PI 2 B+

1 and 1